Time;durP1;ratioP1;P1;durP2;ratioP2;P2;SDS_P1;SDS_P2;PMS_P1;PMS_P2;Temp;Humidity;BMP_temperature;BMP_pressure;BME280_temperature;BME280_humidity;BME280_pressure;Samples;Min_cycle;Max_cycle;Signal;HPM_P1;HPM_P2
2023/04/11 00:02:05;;;;;;;1.77;0.90;;;15.10;86.10;;;;;;10059742;28;20025;-62
2023/04/11 00:06:56;;;;;;;3.17;1.20;;;15.10;86.40;;;;;;10066938;28;20105;-63
2023/04/11 00:11:47;;;;;;;2.55;1.00;;;15.20;86.80;;;;;;10059296;28;20415;-65
2023/04/11 00:16:38;;;;;;;1.60;0.90;;;15.20;87.00;;;;;;10059706;28;20034;-64
2023/04/11 00:21:29;;;;;;;0.88;0.40;;;15.10;87.50;;;;;;10054119;28;20056;-63
2023/04/11 00:26:20;;;;;;;1.05;0.80;;;15.20;88.70;;;;;;10059179;28;20034;-63
2023/04/11 00:31:11;;;;;;;1.42;0.90;;;15.00;90.00;;;;;;10058426;28;20423;-64
2023/04/11 00:36:01;;;;;;;5.00;0.80;;;14.90;90.50;;;;;;10059461;28;20040;-63
2023/04/11 00:40:52;;;;;;;1.52;0.90;;;14.80;91.00;;;;;;10058576;28;20026;-64
2023/04/11 00:45:43;;;;;;;2.13;0.80;;;14.70;91.50;;;;;;10059670;28;20044;-64
2023/04/11 00:50:38;;;;;;;1.05;0.60;;;14.70;92.70;;;;;;10066284;28;20112;-63
2023/04/11 00:55:29;;;;;;;1.20;0.60;;;14.60;92.60;;;;;;10053281;28;20163;-64
2023/04/11 01:00:20;;;;;;;0.70;0.50;;;14.60;92.90;;;;;;10057926;28;20033;-64
2023/04/11 01:05:15;;;;;;;0.80;0.63;;;14.70;93.10;;;;;;10058052;28;20026;-65
2023/04/11 01:10:07;;;;;;;0.93;0.70;;;14.80;93.30;;;;;;10055935;28;20552;-64
2023/04/11 01:14:58;;;;;;;1.58;0.90;;;14.80;93.50;;;;;;10056074;28;20060;-64
2023/04/11 01:19:49;;;;;;;2.10;0.90;;;14.70;93.70;;;;;;10057462;28;20504;-64
2023/04/11 01:24:39;;;;;;;0.82;0.70;;;14.50;94.10;;;;;;10057178;28;20034;-63
2023/04/11 01:29:30;;;;;;;0.98;0.60;;;14.40;94.20;;;;;;10057054;28;20045;-64
2023/04/11 01:34:26;;;;;;;1.10;0.60;;;14.40;94.60;;;;;;10055292;28;20041;-64
2023/04/11 01:39:17;;;;;;;1.70;0.50;;;14.00;95.40;;;;;;10056301;28;20044;-63
2023/04/11 01:44:08;;;;;;;1.02;0.55;;;13.50;96.00;;;;;;10056497;28;20388;-63
2023/04/11 01:49:02;;;;;;;0.95;0.73;;;13.00;96.70;;;;;;10066131;28;20032;-63
2023/04/11 01:53:52;;;;;;;1.30;0.60;;;12.90;97.20;;;;;;10056885;28;20091;-64
2023/04/11 01:58:43;;;;;;;1.38;0.35;;;12.90;97.50;;;;;;10050021;28;20438;-64
2023/04/11 02:03:35;;;;;;;1.50;0.50;;;12.90;97.80;;;;;;10056581;28;20036;-63
2023/04/11 02:08:26;;;;;;;1.27;0.57;;;12.80;98.20;;;;;;10061644;28;20034;-63
2023/04/11 02:13:16;;;;;;;2.38;0.65;;;12.90;98.50;;;;;;10053196;28;20431;-64
2023/04/11 02:18:08;;;;;;;1.23;0.68;;;12.80;98.90;;;;;;10056470;28;20030;-63
2023/04/11 02:23:03;;;;;;;2.67;0.77;;;12.70;99.50;;;;;;10055957;28;20384;-64
2023/04/11 02:27:53;;;;;;;2.20;0.40;;;12.70;99.90;;;;;;10055993;28;20076;-63
2023/04/11 02:32:45;;;;;;;4.93;0.70;;;13.00;99.90;;;;;;10055946;28;20099;-63
2023/04/11 02:37:36;;;;;;;1.48;0.93;;;13.20;99.90;;;;;;10055519;28;20392;-65
2023/04/11 02:42:26;;;;;;;1.52;0.40;;;13.20;99.90;;;;;;10056004;28;20036;-63
2023/04/11 02:47:17;;;;;;;1.15;0.50;;;13.30;99.90;;;;;;10072939;28;20478;-64
2023/04/11 02:52:08;;;;;;;4.38;0.77;;;13.50;99.90;;;;;;10062439;28;20022;-63
2023/04/11 02:56:59;;;;;;;2.20;0.82;;;13.40;99.90;;;;;;10057840;28;20717;-67
2023/04/11 03:01:57;;;;;;;1.13;0.30;;;13.30;99.90;;;;;;10061095;28;20127;-64
2023/04/11 03:06:47;;;;;;;2.03;0.63;;;13.20;99.90;;;;;;10048544;28;20499;-64
2023/04/11 03:11:39;;;;;;;0.20;0.20;;;12.20;99.90;;;;;;10059066;28;20025;-65
2023/04/11 03:16:30;;;;;;;0.40;0.20;;;11.60;99.90;;;;;;10061628;28;20460;-64
2023/04/11 03:21:21;;;;;;;0.60;0.40;;;11.30;99.90;;;;;;10060935;28;20091;-64
2023/04/11 03:26:11;;;;;;;0.52;0.20;;;11.10;99.90;;;;;;10061627;28;20033;-65
2023/04/11 03:31:02;;;;;;;0.98;0.47;;;11.10;99.90;;;;;;10060673;28;20405;-63
2023/04/11 03:35:53;;;;;;;0.40;0.30;;;11.10;99.90;;;;;;10061032;28;20411;-64
2023/04/11 03:40:44;;;;;;;0.40;0.22;;;11.10;99.90;;;;;;10060541;28;20032;-64
2023/04/11 03:45:34;;;;;;;0.70;0.30;;;11.10;99.90;;;;;;10061362;28;20017;-64
2023/04/11 03:50:25;;;;;;;0.93;0.30;;;11.10;99.90;;;;;;10069802;28;20055;-64
2023/04/11 03:55:16;;;;;;;0.40;0.25;;;11.20;99.90;;;;;;10055152;28;20062;-65
2023/04/11 04:00:07;;;;;;;1.35;0.30;;;11.10;99.90;;;;;;10060426;28;20053;-68
2023/04/11 04:04:58;;;;;;;1.80;0.30;;;11.10;99.90;;;;;;10056014;28;20027;-65
2023/04/11 04:09:49;;;;;;;1.08;0.32;;;11.00;99.90;;;;;;10059609;28;20030;-64
2023/04/11 04:14:39;;;;;;;1.05;0.45;;;11.00;99.90;;;;;;10060420;28;20125;-63
2023/04/11 04:19:30;;;;;;;1.60;0.50;;;11.00;99.90;;;;;;10059060;28;20120;-63
2023/04/11 04:24:24;;;;;;;0.52;0.50;;;11.00;99.90;;;;;;10059427;28;20437;-65
2023/04/11 04:29:16;;;;;;;1.73;0.30;;;11.00;99.90;;;;;;10058176;28;20032;-64
2023/04/11 04:34:08;;;;;;;0.55;0.55;;;11.00;99.90;;;;;;10058465;28;20518;-64
2023/04/11 04:39:00;;;;;;;1.52;1.10;;;11.00;99.90;;;;;;10058476;28;20449;-65
2023/04/11 04:43:53;;;;;;;3.20;0.50;;;11.00;99.90;;;;;;10058604;28;20030;-65
2023/04/11 04:48:44;;;;;;;1.50;0.40;;;11.10;99.90;;;;;;10067937;28;20090;-64
2023/04/11 04:53:37;;;;;;;1.42;0.52;;;11.20;99.90;;;;;;10057942;28;20037;-63
2023/04/11 04:58:28;;;;;;;2.92;1.08;;;11.30;99.90;;;;;;10052197;28;20091;-64
2023/04/11 05:03:19;;;;;;;2.42;0.50;;;11.40;99.90;;;;;;10056757;28;20052;-64
2023/04/11 05:08:10;;;;;;;1.05;0.45;;;11.40;99.90;;;;;;10055619;28;20251;-64
2023/04/11 05:13:00;;;;;;;1.45;0.50;;;11.50;99.90;;;;;;10058088;28;20392;-63
2023/04/11 05:17:51;;;;;;;2.92;0.52;;;11.50;99.90;;;;;;10057577;28;20172;-63
2023/04/11 05:22:42;;;;;;;1.98;0.50;;;11.50;99.90;;;;;;10055889;28;20360;-65
2023/04/11 05:27:32;;;;;;;3.35;0.60;;;11.50;99.90;;;;;;10057076;28;20101;-64
2023/04/11 05:32:23;;;;;;;1.90;0.50;;;11.60;99.90;;;;;;10056494;28;20042;-63
2023/04/11 05:37:15;;;;;;;1.25;0.50;;;11.60;99.90;;;;;;10056730;28;20520;-65
2023/04/11 05:42:05;;;;;;;1.50;0.60;;;11.60;99.90;;;;;;10055823;28;20020;-63
2023/04/11 05:46:56;;;;;;;2.08;0.55;;;11.70;99.90;;;;;;10066434;28;20031;-63
2023/04/11 05:51:46;;;;;;;2.78;1.05;;;11.70;99.90;;;;;;10056597;28;20381;-64
2023/04/11 05:56:41;;;;;;;1.73;0.70;;;11.80;99.90;;;;;;10049574;28;20099;-63
2023/04/11 06:01:31;;;;;;;1.88;0.60;;;11.90;99.90;;;;;;10055093;28;20064;-63
2023/04/11 06:06:22;;;;;;;2.92;0.73;;;11.90;99.90;;;;;;10049709;28;20061;-63
2023/04/11 06:11:13;;;;;;;2.17;0.63;;;11.90;99.90;;;;;;10052846;28;20112;-63
2023/04/11 06:16:05;;;;;;;3.55;0.82;;;12.00;99.90;;;;;;10054830;28;20041;-64
2023/04/11 06:20:56;;;;;;;1.40;0.70;;;12.10;99.90;;;;;;10060602;28;20040;-64
2023/04/11 06:25:46;;;;;;;2.28;0.80;;;12.20;99.90;;;;;;10064212;28;20032;-63
2023/04/11 06:30:37;;;;;;;1.77;0.80;;;12.20;99.90;;;;;;10061887;28;20051;-64
2023/04/11 06:35:27;;;;;;;2.65;1.13;;;12.20;99.90;;;;;;10063238;28;20192;-64
2023/04/11 06:40:21;;;;;;;4.07;1.42;;;12.20;99.90;;;;;;10034890;28;20022;-75
2023/04/11 06:45:12;;;;;;;3.20;1.13;;;12.20;99.90;;;;;;10051732;28;20029;-75
2023/04/11 06:50:03;;;;;;;3.70;1.10;;;12.50;99.90;;;;;;10058436;28;20044;-72
2023/04/11 06:54:54;;;;;;;2.42;1.08;;;12.50;99.90;;;;;;10049795;28;20061;-79
2023/04/11 06:59:45;;;;;;;1.98;1.05;;;12.60;99.90;;;;;;10055245;28;20037;-76
2023/04/11 07:04:36;;;;;;;3.20;0.95;;;12.60;99.90;;;;;;10062103;28;20033;-77
2023/04/11 07:09:27;;;;;;;3.08;1.13;;;12.60;99.90;;;;;;10053729;28;20117;-74
2023/04/11 07:14:17;;;;;;;2.08;1.33;;;12.70;99.90;;;;;;10041791;28;20124;-78
2023/04/11 07:19:08;;;;;;;2.85;1.73;;;12.60;99.90;;;;;;10046211;28;20025;-73
2023/04/11 07:24:01;;;;;;;2.47;1.15;;;12.50;99.90;;;;;;10060026;28;20035;-75
2023/04/11 07:28:52;;;;;;;2.65;1.02;;;12.70;99.90;;;;;;10053991;28;20033;-73
2023/04/11 07:33:43;;;;;;;4.47;1.20;;;12.80;99.90;;;;;;10062952;28;20185;-75
2023/04/11 07:38:36;;;;;;;5.15;1.20;;;12.80;99.90;;;;;;10064142;28;20056;-75
2023/04/11 07:43:28;;;;;;;3.50;1.48;;;12.90;99.90;;;;;;10072750;28;20024;-68
2023/04/11 07:48:20;;;;;;;4.50;1.83;;;13.00;99.90;;;;;;10066119;28;20483;-62
2023/04/11 07:53:13;;;;;;;5.07;2.08;;;13.30;99.90;;;;;;10069368;28;20403;-73
2023/04/11 07:58:04;;;;;;;7.80;1.50;;;13.30;99.90;;;;;;10053566;28;20119;-70
2023/04/11 08:02:58;;;;;;;4.32;1.40;;;13.30;99.90;;;;;;10060574;28;20104;-70
2023/04/11 08:07:48;;;;;;;2.28;1.00;;;13.30;99.90;;;;;;10059799;28;20021;-68
2023/04/11 08:12:39;;;;;;;5.43;2.42;;;12.80;99.90;;;;;;10059752;28;20029;-68
2023/04/11 08:17:36;;;;;;;3.65;1.15;;;13.00;99.90;;;;;;10059130;28;20047;-69
2023/04/11 08:22:27;;;;;;;4.47;1.10;;;12.90;99.90;;;;;;10040591;28;20026;-69
2023/04/11 08:27:17;;;;;;;5.90;1.92;;;12.80;99.90;;;;;;10052911;28;20115;-67
2023/04/11 08:32:08;;;;;;;2.65;1.08;;;13.00;99.90;;;;;;10054234;28;20088;-67
2023/04/11 08:36:58;;;;;;;3.80;1.50;;;13.40;99.90;;;;;;10057026;28;20026;-69
2023/04/11 08:41:49;;;;;;;3.55;1.08;;;13.60;99.90;;;;;;10049758;28;20061;-68
2023/04/11 08:46:41;;;;;;;2.80;1.23;;;13.60;99.90;;;;;;10058066;28;20106;-64
2023/04/11 08:51:32;;;;;;;2.78;1.30;;;13.60;99.90;;;;;;10058129;28;20461;-69
2023/04/11 08:56:23;;;;;;;2.45;1.17;;;13.70;99.90;;;;;;10054792;28;20068;-68
2023/04/11 09:01:31;;;;;;;3.20;1.65;;;13.70;99.90;;;;;;10058279;28;20025;-67
2023/04/11 09:06:21;;;;;;;3.42;1.60;;;13.70;99.90;;;;;;10061543;28;20095;-64
2023/04/11 09:11:12;;;;;;;3.30;1.40;;;13.70;99.90;;;;;;10052609;28;20543;-69
2023/04/11 09:16:03;;;;;;;4.03;1.02;;;13.80;99.50;;;;;;10053123;28;20029;-72
2023/04/11 09:21:04;;;;;;;3.28;1.55;;;13.90;99.20;;;;;;10050382;28;20033;-73
2023/04/11 09:25:55;;;;;;;3.40;1.02;;;14.00;98.90;;;;;;10058113;28;20061;-69
2023/04/11 09:30:51;;;;;;;2.83;0.90;;;14.10;99.00;;;;;;10051084;28;20042;-66
2023/04/11 09:35:42;;;;;;;3.47;0.80;;;14.30;98.40;;;;;;10055813;28;20045;-71
2023/04/11 09:40:41;;;;;;;2.35;0.85;;;14.40;98.20;;;;;;10056647;28;20033;-69
2023/04/11 09:45:31;;;;;;;3.33;1.67;;;14.40;98.00;;;;;;10049501;28;20022;-69
2023/04/11 09:50:23;;;;;;;1.63;0.85;;;14.20;97.80;;;;;;10046919;28;20039;-67
2023/04/11 09:55:18;;;;;;;4.68;1.77;;;14.40;97.60;;;;;;10054546;28;20045;-67
2023/04/11 10:00:18;;;;;;;3.17;1.40;;;14.70;97.30;;;;;;10045679;28;20108;-66
2023/04/11 10:05:11;;;;;;;3.70;1.50;;;14.70;96.80;;;;;;10060984;28;20059;-66
2023/04/11 10:10:03;;;;;;;4.85;1.30;;;14.70;96.60;;;;;;10057918;28;20417;-66
2023/04/11 10:14:55;;;;;;;3.38;1.05;;;14.70;96.00;;;;;;10056085;28;20060;-65
2023/04/11 10:19:47;;;;;;;2.97;1.40;;;14.60;95.70;;;;;;10037569;28;20088;-67
2023/04/11 10:24:38;;;;;;;5.15;1.55;;;14.60;95.40;;;;;;10053214;28;20342;-63
2023/04/11 10:29:29;;;;;;;2.50;1.38;;;14.80;95.30;;;;;;10053867;28;20040;-67
2023/04/11 10:34:19;;;;;;;2.85;1.15;;;14.80;95.10;;;;;;10052995;28;20508;-69
2023/04/11 10:39:10;;;;;;;3.72;1.20;;;14.90;94.90;;;;;;10060047;28;20069;-64
2023/04/11 10:44:16;;;;;;;4.20;1.75;;;15.10;94.60;;;;;;10049698;28;20033;-63
2023/04/11 10:49:07;;;;;;;5.13;2.00;;;15.00;94.20;;;;;;10045081;28;20404;-61
2023/04/11 10:53:59;;;;;;;4.88;1.10;;;15.10;94.00;;;;;;10046458;28;20025;-62
2023/04/11 10:58:52;;;;;;;4.03;1.20;;;15.00;93.70;;;;;;10051458;28;20034;-61
2023/04/11 11:03:51;;;;;;;5.80;1.70;;;15.10;93.20;;;;;;10047551;28;20025;-63
2023/04/11 11:08:45;;;;;;;3.17;1.20;;;15.20;92.50;;;;;;10059591;28;20491;-58
2023/04/11 11:13:52;;;;;;;3.70;1.23;;;15.20;92.40;;;;;;10040483;28;20044;-61
2023/04/11 11:19:01;;;;;;;2.80;1.52;;;15.30;92.00;;;;;;10041167;28;20037;-63
2023/04/11 11:24:02;;;;;;;4.75;1.60;;;15.30;91.90;;;;;;10048768;28;20025;-60
2023/04/11 11:28:53;;;;;;;2.55;1.00;;;15.40;91.60;;;;;;10035458;28;20033;-61
2023/04/11 11:33:43;;;;;;;1.88;1.20;;;15.60;91.90;;;;;;10052363;28;20160;-62
2023/04/11 11:38:35;;;;;;;2.70;1.20;;;15.50;91.80;;;;;;10041442;28;20189;-61
2023/04/11 11:43:26;;;;;;;2.85;1.33;;;15.40;91.80;;;;;;10027689;28;20028;-59
2023/04/11 11:48:22;;;;;;;2.97;1.08;;;15.40;91.80;;;;;;10052245;28;20037;-63
2023/04/11 11:53:14;;;;;;;6.32;1.23;;;15.30;91.60;;;;;;10030981;28;20032;-57
2023/04/11 11:58:05;;;;;;;4.03;1.88;;;15.40;91.40;;;;;;10037652;28;20069;-62
2023/04/11 12:02:58;;;;;;;6.22;1.13;;;15.80;91.30;;;;;;10066854;22;20484;-61
2023/04/11 12:07:53;;;;;;;5.82;1.50;;;15.90;91.30;;;;;;10094429;28;20028;-60
2023/04/11 12:12:48;;;;;;;4.25;1.60;;;16.00;91.10;;;;;;10096883;28;20059;-60
2023/04/11 12:17:39;;;;;;;3.80;1.30;;;16.10;91.00;;;;;;10094840;28;20044;-59
2023/04/11 12:22:30;;;;;;;3.58;1.33;;;16.50;90.80;;;;;;10096251;28;20033;-59
2023/04/11 12:27:21;;;;;;;2.58;1.50;;;16.60;90.70;;;;;;10096241;28;20037;-59
2023/04/11 12:32:11;;;;;;;3.20;1.13;;;16.70;90.70;;;;;;10096719;28;20128;-60
2023/04/11 12:37:02;;;;;;;6.63;1.13;;;16.70;90.50;;;;;;10090675;28;20119;-59
2023/04/11 12:41:52;;;;;;;3.70;1.13;;;16.70;90.60;;;;;;10093929;28;20099;-61
2023/04/11 12:46:43;;;;;;;3.20;1.27;;;16.70;90.20;;;;;;10100576;28;20598;-62
2023/04/11 12:51:34;;;;;;;3.45;0.90;;;16.60;89.80;;;;;;10093121;28;20483;-61
2023/04/11 12:56:25;;;;;;;3.40;1.05;;;16.80;89.20;;;;;;10096959;28;20089;-61
2023/04/11 13:01:17;;;;;;;3.70;1.05;;;16.80;88.30;;;;;;10096950;28;20037;-62
2023/04/11 13:06:07;;;;;;;1.83;1.10;;;17.00;87.90;;;;;;10093459;28;20104;-59
2023/04/11 13:10:58;;;;;;;2.28;1.10;;;17.10;87.30;;;;;;10098079;28;20479;-61
2023/04/11 13:15:49;;;;;;;2.83;1.10;;;17.60;86.90;;;;;;10097981;28;20086;-61
2023/04/11 13:20:41;;;;;;;1.95;1.40;;;17.70;85.90;;;;;;10095582;28;20025;-60
2023/04/11 13:25:32;;;;;;;4.10;1.42;;;19.30;85.00;;;;;;10096374;28;20039;-61
2023/04/11 13:30:22;;;;;;;1.88;0.90;;;20.40;83.60;;;;;;10094956;28;20027;-61
2023/04/11 13:35:13;;;;;;;3.13;1.45;;;20.20;83.00;;;;;;10095679;28;20037;-60
2023/04/11 13:40:09;;;;;;;2.40;0.88;;;20.00;81.60;;;;;;10095352;28;20646;-62
2023/04/11 13:45:00;;;;;;;3.20;1.00;;;20.60;80.30;;;;;;10097186;28;20139;-61
2023/04/11 13:49:51;;;;;;;2.05;1.13;;;19.80;80.30;;;;;;10095301;28;20127;-63
2023/04/11 13:54:41;;;;;;;2.50;1.10;;;20.10;78.90;;;;;;10095462;28;20082;-61
2023/04/11 13:59:32;;;;;;;2.35;1.20;;;21.30;77.40;;;;;;10090974;28;20048;-63
2023/04/11 14:04:23;;;;;;;3.67;1.08;;;20.50;76.30;;;;;;10095769;28;20424;-65
2023/04/11 14:09:13;;;;;;;3.28;0.80;;;18.40;76.90;;;;;;10096082;28;20040;-63
2023/04/11 14:14:04;;;;;;;3.38;1.00;;;17.70;76.70;;;;;;10094997;28;20040;-64
2023/04/11 14:18:55;;;;;;;3.50;1.25;;;18.10;75.00;;;;;;10094968;28;20192;-66
2023/04/11 14:23:46;;;;;;;2.72;0.65;;;17.50;74.80;;;;;;10095670;28;20029;-64
2023/04/11 14:28:37;;;;;;;6.13;1.35;;;17.10;74.80;;;;;;10095260;28;20057;-64
2023/04/11 14:33:28;;;;;;;4.10;1.77;;;17.20;74.70;;;;;;10093603;28;20514;-63
2023/04/11 14:38:18;;;;;;;3.30;0.85;;;17.30;74.50;;;;;;10093651;28;20021;-63
2023/04/11 14:43:10;;;;;;;4.20;1.30;;;17.00;74.20;;;;;;10102501;28;20029;-62
2023/04/11 14:48:01;;;;;;;2.53;1.05;;;16.90;74.10;;;;;;10101621;28;20048;-62
2023/04/11 14:52:51;;;;;;;2.38;0.90;;;17.10;74.10;;;;;;10102465;28;20108;-69
2023/04/11 14:57:45;;;;;;;3.67;1.17;;;19.50;72.90;;;;;;10104241;28;20120;-73
2023/04/11 15:02:35;;;;;;;3.58;0.93;;;20.50;71.70;;;;;;10098267;28;20094;-63
2023/04/11 15:07:26;;;;;;;3.40;0.90;;;18.70;72.30;;;;;;10093275;28;20082;-65
2023/04/11 15:12:17;;;;;;;4.55;1.58;;;18.60;71.40;;;;;;10101872;28;20037;-66
2023/04/11 15:17:07;;;;;;;2.40;0.82;;;19.80;70.80;;;;;;10101695;28;20526;-66
2023/04/11 15:21:58;;;;;;;2.75;1.33;;;21.80;68.70;;;;;;10101126;28;20021;-65
2023/04/11 15:26:49;;;;;;;2.03;1.00;;;22.20;67.30;;;;;;10100280;28;20094;-62
2023/04/11 15:31:39;;;;;;;1.42;0.85;;;22.20;65.90;;;;;;10101058;28;20775;-62
2023/04/11 15:36:30;;;;;;;2.17;0.88;;;20.90;66.30;;;;;;10099608;28;20068;-64
2023/04/11 15:41:21;;;;;;;2.22;1.33;;;21.90;64.90;;;;;;10100533;28;20079;-63
2023/04/11 15:46:11;;;;;;;4.05;0.93;;;21.00;64.70;;;;;;10106489;28;20035;-63
2023/04/11 15:51:09;;;;;;;2.17;0.80;;;20.00;64.80;;;;;;10103092;28;20391;-64
2023/04/11 15:56:04;;;;;;;1.75;1.42;;;18.30;65.80;;;;;;10100654;28;20135;-64
2023/04/11 16:01:00;;;;;;;2.42;0.95;;;19.20;65.20;;;;;;10095252;28;20159;-64
2023/04/11 16:05:51;;;;;;;1.88;0.90;;;19.40;64.50;;;;;;10099825;28;20156;-64
2023/04/11 16:10:42;;;;;;;3.42;1.00;;;18.20;65.50;;;;;;10100475;28;20479;-64
2023/04/11 16:15:33;;;;;;;2.60;0.80;;;17.70;66.10;;;;;;10099293;28;20044;-63
2023/04/11 16:20:23;;;;;;;1.73;0.73;;;17.60;66.30;;;;;;10101893;28;20029;-64
2023/04/11 16:25:17;;;;;;;2.60;0.90;;;17.30;66.60;;;;;;10098676;28;20437;-63
2023/04/11 16:30:08;;;;;;;5.60;1.17;;;17.00;67.10;;;;;;10096282;28;20452;-65
2023/04/11 16:34:59;;;;;;;2.42;1.13;;;16.80;67.10;;;;;;10088008;28;20124;-64
2023/04/11 16:39:50;;;;;;;2.22;0.90;;;16.70;67.30;;;;;;10102105;28;20108;-63
2023/04/11 16:44:41;;;;;;;4.57;1.42;;;16.60;67.80;;;;;;10098080;28;20113;-64
2023/04/11 16:49:31;;;;;;;3.05;1.35;;;16.50;67.80;;;;;;10100316;28;20044;-64
2023/04/11 16:54:22;;;;;;;1.67;0.90;;;16.40;68.10;;;;;;10099138;28;20415;-65
2023/04/11 16:59:13;;;;;;;3.60;0.70;;;16.50;68.20;;;;;;10092720;28;20108;-62
2023/04/11 17:04:03;;;;;;;4.75;1.48;;;16.30;68.40;;;;;;10096893;28;20155;-65
2023/04/11 17:08:56;;;;;;;35.70;19.02;;;16.10;68.80;;;;;;10095991;28;20025;-64
2023/04/11 17:13:48;;;;;;;7.07;4.90;;;16.10;68.90;;;;;;10097015;28;20064;-63
2023/04/11 17:18:39;;;;;;;6.18;1.58;;;16.10;69.20;;;;;;10092579;28;20036;-66
2023/04/11 17:23:30;;;;;;;5.00;1.55;;;16.10;69.40;;;;;;10093138;28;20117;-62
2023/04/11 17:28:21;;;;;;;6.35;1.50;;;15.90;69.60;;;;;;10093393;28;20112;-63
2023/04/11 17:33:13;;;;;;;3.80;1.58;;;15.90;69.90;;;;;;10097096;28;20028;-63
2023/04/11 17:38:03;;;;;;;2.83;1.25;;;15.80;70.20;;;;;;10096016;28;20033;-62
2023/04/11 17:42:56;;;;;;;2.67;0.98;;;15.60;70.50;;;;;;10096139;28;20391;-66
2023/04/11 17:47:47;;;;;;;4.15;1.65;;;15.50;71.00;;;;;;10105714;28;20256;-67
2023/04/11 17:52:39;;;;;;;3.08;1.20;;;15.60;71.20;;;;;;10093908;28;20031;-63
2023/04/11 17:57:31;;;;;;;2.08;0.98;;;15.40;71.30;;;;;;10094151;28;20490;-63
2023/04/11 18:02:21;;;;;;;4.20;2.00;;;15.30;71.70;;;;;;10088744;28;20029;-64
2023/04/11 18:07:12;;;;;;;2.15;0.88;;;15.30;71.90;;;;;;10081851;28;20063;-62
2023/04/11 18:12:03;;;;;;;2.97;1.05;;;15.30;72.10;;;;;;10088494;28;20463;-64
2023/04/11 18:16:53;;;;;;;6.10;1.27;;;15.20;72.30;;;;;;10083932;28;20574;-64
2023/04/11 18:21:44;;;;;;;1.67;1.33;;;15.20;72.60;;;;;;10096372;28;20071;-66
2023/04/11 18:26:35;;;;;;;6.40;1.17;;;15.10;72.60;;;;;;10099930;28;20037;-64
2023/04/11 18:31:25;;;;;;;2.20;1.13;;;15.10;72.80;;;;;;10099115;28;20064;-65
2023/04/11 18:36:16;;;;;;;3.00;1.00;;;15.10;72.80;;;;;;10093951;28;20091;-65
2023/04/11 18:41:07;;;;;;;4.78;1.60;;;15.10;73.00;;;;;;10091057;28;20025;-63
2023/04/11 18:46:00;;;;;;;6.15;1.80;;;15.10;73.10;;;;;;10085770;28;20119;-63
2023/04/11 18:51:00;;;;;;;3.97;1.30;;;15.00;73.20;;;;;;10092389;28;20013;-63
2023/04/11 18:55:50;;;;;;;2.30;1.10;;;14.90;73.50;;;;;;10101078;28;20074;-64
2023/04/11 19:00:41;;;;;;;4.07;1.08;;;15.00;73.60;;;;;;10092153;28;20029;-62
2023/04/11 19:05:32;;;;;;;1.73;0.93;;;15.00;73.70;;;;;;10087743;28;20053;-63
2023/04/11 19:10:23;;;;;;;2.47;1.13;;;15.00;73.90;;;;;;10086568;28;20116;-64
2023/04/11 19:15:13;;;;;;;5.45;1.08;;;15.00;73.90;;;;;;10097754;28;20086;-67
2023/04/11 19:20:11;;;;;;;2.67;1.50;;;15.00;74.10;;;;;;10096953;28;20028;-65
2023/04/11 19:25:02;;;;;;;4.85;1.40;;;15.00;74.10;;;;;;10093063;28;20029;-65
2023/04/11 19:29:53;;;;;;;7.25;2.00;;;14.90;74.30;;;;;;10090407;28;20033;-69
2023/04/11 19:34:44;;;;;;;9.80;6.53;;;14.90;74.30;;;;;;10096420;28;20041;-66
2023/04/11 19:39:37;;;;;;;202.48;103.93;;;15.10;74.50;;;;;;10083860;28;20028;-64
2023/04/11 19:44:29;;;;;;;82.22;40.78;;;15.40;74.50;;;;;;10100033;28;20041;-62
2023/04/11 19:49:20;;;;;;;29.30;16.25;;;15.30;74.70;;;;;;10099526;28;20017;-67
2023/04/11 19:54:10;;;;;;;23.50;13.52;;;15.30;74.90;;;;;;10109041;28;20217;-64
2023/04/11 19:59:01;;;;;;;12.38;5.47;;;15.40;75.10;;;;;;10099106;28;20025;-63
2023/04/11 20:03:52;;;;;;;13.23;5.72;;;15.40;75.40;;;;;;10090068;28;20106;-69
2023/04/11 20:08:43;;;;;;;8.10;3.67;;;15.30;75.50;;;;;;10090060;28;20056;-60
2023/04/11 20:13:34;;;;;;;10.90;4.07;;;15.30;75.80;;;;;;10089881;28;20045;-60
2023/04/11 20:18:26;;;;;;;5.20;1.92;;;15.10;76.10;;;;;;10092734;28;20048;-60
2023/04/11 20:23:16;;;;;;;4.85;2.95;;;15.00;76.30;;;;;;10095535;28;20031;-60
2023/04/11 20:28:07;;;;;;;50.70;20.83;;;15.00;76.50;;;;;;10078153;28;20395;-58
2023/04/11 20:32:58;;;;;;;21.20;10.77;;;15.10;76.50;;;;;;10086197;28;20039;-58
2023/04/11 20:37:49;;;;;;;7.47;4.03;;;15.00;76.70;;;;;;10083014;28;20048;-57
2023/04/11 20:42:41;;;;;;;7.72;3.08;;;14.90;76.80;;;;;;10078329;28;20025;-61
2023/04/11 20:47:36;;;;;;;5.20;2.78;;;14.80;77.10;;;;;;10083487;28;20017;-58
2023/04/11 20:52:28;;;;;;;5.57;2.30;;;14.60;77.60;;;;;;10071464;28;20491;-57
2023/04/11 20:57:20;;;;;;;5.50;2.25;;;14.60;77.60;;;;;;10090627;28;20123;-55
2023/04/11 21:02:10;;;;;;;4.43;2.78;;;14.50;77.80;;;;;;10088991;28;20036;-54
2023/04/11 21:07:01;;;;;;;4.03;1.67;;;14.50;77.80;;;;;;10083160;28;20029;-54
2023/04/11 21:11:52;;;;;;;4.50;2.50;;;14.50;77.90;;;;;;10092566;28;20029;-57
2023/04/11 21:16:43;;;;;;;5.40;2.05;;;14.50;78.20;;;;;;10092031;28;20302;-54
2023/04/11 21:21:33;;;;;;;5.45;1.65;;;14.40;78.50;;;;;;10093469;28;20550;-55
2023/04/11 21:26:24;;;;;;;2.90;1.65;;;14.30;78.70;;;;;;10096641;28;20025;-56
2023/04/11 21:31:15;;;;;;;2.80;1.55;;;14.30;79.00;;;;;;10096074;28;20473;-55
2023/04/11 21:36:06;;;;;;;4.28;1.38;;;14.30;79.30;;;;;;10093251;28;20040;-55
2023/04/11 21:40:57;;;;;;;3.20;1.30;;;14.30;79.30;;;;;;10097207;28;20053;-56
2023/04/11 21:45:47;;;;;;;2.85;1.25;;;14.20;79.60;;;;;;10099027;28;20048;-56
2023/04/11 21:50:38;;;;;;;2.63;1.60;;;14.10;79.80;;;;;;10097407;28;20063;-53
2023/04/11 21:55:29;;;;;;;4.35;1.60;;;14.00;80.00;;;;;;10095380;28;20048;-61
2023/04/11 22:00:20;;;;;;;3.75;1.30;;;14.00;80.20;;;;;;10095715;28;20032;-59
2023/04/11 22:05:11;;;;;;;2.92;1.50;;;14.00;80.30;;;;;;10087215;28;20503;-59
2023/04/11 22:10:08;;;;;;;2.65;1.27;;;13.70;80.90;;;;;;10093707;28;20029;-55
2023/04/11 22:14:58;;;;;;;4.70;1.50;;;13.60;81.20;;;;;;10095565;28;20391;-55
2023/04/11 22:19:49;;;;;;;2.72;1.30;;;13.40;82.00;;;;;;10096725;28;20029;-58
2023/04/11 22:24:39;;;;;;;3.70;1.48;;;13.30;82.60;;;;;;10100010;28;20064;-59
2023/04/11 22:29:33;;;;;;;4.10;1.40;;;13.20;82.90;;;;;;10094640;28;20029;-58
2023/04/11 22:34:24;;;;;;;2.50;1.48;;;13.20;83.80;;;;;;10092740;28;20139;-57
2023/04/11 22:39:15;;;;;;;3.42;1.50;;;13.30;83.60;;;;;;10095761;28;20036;-58
2023/04/11 22:44:06;;;;;;;1.73;1.20;;;13.30;83.70;;;;;;10096207;28;20028;-58
2023/04/11 22:48:57;;;;;;;1.17;0.90;;;13.30;84.00;;;;;;10093299;28;20029;-58
2023/04/11 22:53:47;;;;;;;2.00;0.90;;;13.40;84.50;;;;;;10097125;28;20470;-55
2023/04/11 22:58:39;;;;;;;2.85;1.40;;;13.20;85.00;;;;;;10096105;28;20487;-58
2023/04/11 23:03:29;;;;;;;2.45;1.05;;;13.30;85.10;;;;;;10099755;28;20095;-56
2023/04/11 23:08:20;;;;;;;1.75;0.68;;;13.10;86.40;;;;;;10104038;28;20044;-58
2023/04/11 23:13:11;;;;;;;4.30;1.10;;;13.00;86.80;;;;;;10098989;28;20079;-57
2023/04/11 23:18:02;;;;;;;1.75;0.95;;;12.90;87.20;;;;;;10098978;28;20037;-55
2023/04/11 23:22:52;;;;;;;3.58;0.80;;;12.90;87.80;;;;;;10095900;28;20756;-58
2023/04/11 23:27:44;;;;;;;2.20;0.88;;;12.90;88.10;;;;;;10100022;28;20033;-58
2023/04/11 23:32:34;;;;;;;2.05;0.88;;;12.70;88.90;;;;;;10099502;28;20032;-58
2023/04/11 23:37:26;;;;;;;2.03;1.02;;;12.60;89.90;;;;;;10100288;28;20646;-57
2023/04/11 23:42:16;;;;;;;3.33;1.27;;;12.60;90.10;;;;;;10099992;28;20039;-56
2023/04/11 23:47:07;;;;;;;1.33;1.13;;;12.50;90.40;;;;;;10104688;28;20104;-58
2023/04/11 23:51:57;;;;;;;2.53;1.75;;;12.50;90.80;;;;;;10095075;28;20025;-59
2023/04/11 23:56:48;;;;;;;4.07;1.85;;;12.50;91.10;;;;;;10093778;28;20037;-56
